sensor_id;sensor_type;location;lat;lon;timestamp;P1;durP1;ratioP1;P2;durP2;ratioP2
76403;SDS011;65232;48.358;2.122;2022-12-10T00:00:19;35.10;;;22.92;;
76403;SDS011;65232;48.358;2.122;2022-12-10T00:00:44;34.50;;;21.83;;
76403;SDS011;65232;48.358;2.122;2022-12-10T00:01:11;33.05;;;23.25;;
76403;SDS011;65232;48.358;2.122;2022-12-10T00:01:39;35.67;;;23.05;;
76403;SDS011;65232;48.358;2.122;2022-12-10T00:02:05;35.33;;;24.30;;
76403;SDS011;65232;48.358;2.122;2022-12-10T00:02:30;35.95;;;22.67;;
76403;SDS011;65232;48.358;2.122;2022-12-10T00:02:55;33.67;;;22.65;;
76403;SDS011;65232;48.358;2.122;2022-12-10T00:03:21;33.08;;;23.00;;
76403;SDS011;65232;48.358;2.122;2022-12-10T00:03:46;41.10;;;24.88;;
76403;SDS011;65232;48.358;2.122;2022-12-10T00:04:12;34.55;;;23.38;;
76403;SDS011;65232;48.358;2.122;2022-12-10T00:04:37;29.45;;;21.90;;
76403;SDS011;65232;48.358;2.122;2022-12-10T00:05:03;33.05;;;22.52;;
76403;SDS011;65232;48.358;2.122;2022-12-10T00:05:28;34.20;;;21.90;;
76403;SDS011;65232;48.358;2.122;2022-12-10T00:05:54;34.20;;;22.50;;
76403;SDS011;65232;48.358;2.122;2022-12-10T00:06:20;30.40;;;21.38;;
76403;SDS011;65232;48.358;2.122;2022-12-10T00:06:47;33.28;;;22.50;;
76403;SDS011;65232;48.358;2.122;2022-12-10T00:07:13;34.13;;;22.30;;
76403;SDS011;65232;48.358;2.122;2022-12-10T00:07:38;31.02;;;20.70;;
76403;SDS011;65232;48.358;2.122;2022-12-10T00:08:04;31.35;;;21.92;;
76403;SDS011;65232;48.358;2.122;2022-12-10T00:08:30;29.17;;;20.77;;
76403;SDS011;65232;48.358;2.122;2022-12-10T00:08:55;30.35;;;21.67;;
76403;SDS011;65232;48.358;2.122;2022-12-10T00:09:21;32.08;;;22.48;;
76403;SDS011;65232;48.358;2.122;2022-12-10T00:09:46;31.38;;;21.30;;
76403;SDS011;65232;48.358;2.122;2022-12-10T00:10:12;33.80;;;22.77;;
76403;SDS011;65232;48.358;2.122;2022-12-10T00:10:40;31.17;;;21.95;;
76403;SDS011;65232;48.358;2.122;2022-12-10T00:11:06;32.03;;;22.23;;
76403;SDS011;65232;48.358;2.122;2022-12-10T00:11:34;31.67;;;21.30;;
76403;SDS011;65232;48.358;2.122;2022-12-10T00:11:59;32.22;;;21.63;;
76403;SDS011;65232;48.358;2.122;2022-12-10T00:12:25;34.05;;;22.52;;
76403;SDS011;65232;48.358;2.122;2022-12-10T00:12:50;33.03;;;21.70;;
76403;SDS011;65232;48.358;2.122;2022-12-10T00:13:15;35.30;;;22.20;;
76403;SDS011;65232;48.358;2.122;2022-12-10T00:13:42;32.83;;;22.73;;
76403;SDS011;65232;48.358;2.122;2022-12-10T00:14:09;32.42;;;22.27;;
76403;SDS011;65232;48.358;2.122;2022-12-10T00:14:36;33.65;;;21.60;;
76403;SDS011;65232;48.358;2.122;2022-12-10T00:15:02;34.70;;;22.85;;
76403;SDS011;65232;48.358;2.122;2022-12-10T00:15:27;35.50;;;22.60;;
76403;SDS011;65232;48.358;2.122;2022-12-10T00:15:53;33.85;;;22.63;;
76403;SDS011;65232;48.358;2.122;2022-12-10T00:16:19;32.90;;;22.38;;
76403;SDS011;65232;48.358;2.122;2022-12-10T00:16:45;33.95;;;22.52;;
76403;SDS011;65232;48.358;2.122;2022-12-10T00:17:11;33.72;;;23.48;;
76403;SDS011;65232;48.358;2.122;2022-12-10T00:17:36;30.20;;;22.13;;
76403;SDS011;65232;48.358;2.122;2022-12-10T00:18:01;32.22;;;20.85;;
76403;SDS011;65232;48.358;2.122;2022-12-10T00:18:27;36.45;;;23.48;;
76403;SDS011;65232;48.358;2.122;2022-12-10T00:18:52;35.70;;;24.05;;
76403;SDS011;65232;48.358;2.122;2022-12-10T00:19:18;36.25;;;23.02;;
76403;SDS011;65232;48.358;2.122;2022-12-10T00:19:44;34.53;;;24.52;;
76403;SDS011;65232;48.358;2.122;2022-12-10T00:20:09;37.00;;;23.13;;
76403;SDS011;65232;48.358;2.122;2022-12-10T00:20:38;35.80;;;24.65;;
76403;SDS011;65232;48.358;2.122;2022-12-10T00:21:04;32.35;;;22.80;;
76403;SDS011;65232;48.358;2.122;2022-12-10T00:21:32;37.08;;;23.23;;
76403;SDS011;65232;48.358;2.122;2022-12-10T00:21:59;35.75;;;23.77;;
76403;SDS011;65232;48.358;2.122;2022-12-10T00:22:24;35.78;;;23.60;;
76403;SDS011;65232;48.358;2.122;2022-12-10T00:22:50;39.28;;;23.90;;
76403;SDS011;65232;48.358;2.122;2022-12-10T00:23:15;38.75;;;24.85;;
76403;SDS011;65232;48.358;2.122;2022-12-10T00:23:41;34.50;;;23.60;;
76403;SDS011;65232;48.358;2.122;2022-12-10T00:24:06;35.97;;;23.70;;
76403;SDS011;65232;48.358;2.122;2022-12-10T00:24:32;35.28;;;24.25;;
76403;SDS011;65232;48.358;2.122;2022-12-10T00:24:57;35.88;;;23.70;;
76403;SDS011;65232;48.358;2.122;2022-12-10T00:25:23;33.72;;;21.40;;
76403;SDS011;65232;48.358;2.122;2022-12-10T00:25:48;33.42;;;22.73;;
76403;SDS011;65232;48.358;2.122;2022-12-10T00:26:20;34.60;;;23.73;;
76403;SDS011;65232;48.358;2.122;2022-12-10T00:26:49;31.60;;;23.27;;
76403;SDS011;65232;48.358;2.122;2022-12-10T00:27:15;32.25;;;21.88;;
76403;SDS011;65232;48.358;2.122;2022-12-10T00:27:40;30.40;;;21.27;;
76403;SDS011;65232;48.358;2.122;2022-12-10T00:28:05;35.05;;;22.67;;
76403;SDS011;65232;48.358;2.122;2022-12-10T00:28:31;34.67;;;23.48;;
76403;SDS011;65232;48.358;2.122;2022-12-10T00:28:57;31.70;;;22.95;;
76403;SDS011;65232;48.358;2.122;2022-12-10T00:29:25;32.08;;;22.10;;
76403;SDS011;65232;48.358;2.122;2022-12-10T00:29:50;33.92;;;22.60;;
76403;SDS011;65232;48.358;2.122;2022-12-10T00:30:16;31.63;;;22.48;;
76403;SDS011;65232;48.358;2.122;2022-12-10T00:30:41;33.22;;;20.70;;
76403;SDS011;65232;48.358;2.122;2022-12-10T00:31:08;31.00;;;21.20;;
76403;SDS011;65232;48.358;2.122;2022-12-10T00:31:37;32.80;;;22.77;;
76403;SDS011;65232;48.358;2.122;2022-12-10T00:32:30;35.58;;;22.10;;
76403;SDS011;65232;48.358;2.122;2022-12-10T00:32:55;35.03;;;23.13;;
76403;SDS011;65232;48.358;2.122;2022-12-10T00:33:21;35.35;;;24.08;;
76403;SDS011;65232;48.358;2.122;2022-12-10T00:33:46;35.13;;;21.92;;
76403;SDS011;65232;48.358;2.122;2022-12-10T00:34:12;34.83;;;22.15;;
76403;SDS011;65232;48.358;2.122;2022-12-10T00:34:38;33.85;;;22.15;;
76403;SDS011;65232;48.358;2.122;2022-12-10T00:35:03;35.30;;;22.05;;
76403;SDS011;65232;48.358;2.122;2022-12-10T00:35:29;29.98;;;22.50;;
76403;SDS011;65232;48.358;2.122;2022-12-10T00:35:55;34.92;;;22.48;;
76403;SDS011;65232;48.358;2.122;2022-12-10T00:36:21;32.80;;;21.23;;
76403;SDS011;65232;48.358;2.122;2022-12-10T00:36:49;33.35;;;21.90;;
76403;SDS011;65232;48.358;2.122;2022-12-10T00:37:14;29.67;;;20.48;;
76403;SDS011;65232;48.358;2.122;2022-12-10T00:37:39;31.30;;;20.92;;
76403;SDS011;65232;48.358;2.122;2022-12-10T00:38:05;29.98;;;20.88;;
76403;SDS011;65232;48.358;2.122;2022-12-10T00:38:30;32.08;;;21.45;;
76403;SDS011;65232;48.358;2.122;2022-12-10T00:38:56;31.38;;;22.20;;
76403;SDS011;65232;48.358;2.122;2022-12-10T00:39:21;33.58;;;21.83;;
76403;SDS011;65232;48.358;2.122;2022-12-10T00:39:46;28.70;;;20.45;;
76403;SDS011;65232;48.358;2.122;2022-12-10T00:40:12;30.55;;;20.73;;
76403;SDS011;65232;48.358;2.122;2022-12-10T00:40:37;30.77;;;20.98;;
76403;SDS011;65232;48.358;2.122;2022-12-10T00:41:03;29.35;;;21.75;;
76403;SDS011;65232;48.358;2.122;2022-12-10T00:41:54;31.80;;;19.23;;
76403;SDS011;65232;48.358;2.122;2022-12-10T00:42:20;30.58;;;19.52;;
76403;SDS011;65232;48.358;2.122;2022-12-10T00:42:45;28.60;;;20.35;;
76403;SDS011;65232;48.358;2.122;2022-12-10T00:43:10;27.77;;;20.38;;
76403;SDS011;65232;48.358;2.122;2022-12-10T00:43:36;31.52;;;21.40;;
76403;SDS011;65232;48.358;2.122;2022-12-10T00:44:01;32.88;;;21.95;;
76403;SDS011;65232;48.358;2.122;2022-12-10T00:44:27;30.42;;;22.13;;
76403;SDS011;65232;48.358;2.122;2022-12-10T00:44:52;30.55;;;19.92;;
76403;SDS011;65232;48.358;2.122;2022-12-10T00:45:17;32.47;;;20.92;;
76403;SDS011;65232;48.358;2.122;2022-12-10T00:45:43;35.55;;;23.00;;
76403;SDS011;65232;48.358;2.122;2022-12-10T00:46:08;39.58;;;27.45;;
76403;SDS011;65232;48.358;2.122;2022-12-10T00:46:34;44.40;;;27.85;;
76403;SDS011;65232;48.358;2.122;2022-12-10T00:46:59;41.85;;;26.77;;
76403;SDS011;65232;48.358;2.122;2022-12-10T00:47:25;46.85;;;27.73;;
76403;SDS011;65232;48.358;2.122;2022-12-10T00:47:50;49.78;;;31.15;;
76403;SDS011;65232;48.358;2.122;2022-12-10T00:48:15;58.25;;;38.13;;
76403;SDS011;65232;48.358;2.122;2022-12-10T00:48:41;58.13;;;35.47;;
76403;SDS011;65232;48.358;2.122;2022-12-10T00:49:07;49.72;;;32.10;;
76403;SDS011;65232;48.358;2.122;2022-12-10T00:49:34;42.95;;;28.15;;
76403;SDS011;65232;48.358;2.122;2022-12-10T00:49:59;36.30;;;24.42;;
76403;SDS011;65232;48.358;2.122;2022-12-10T00:50:25;36.88;;;23.80;;
76403;SDS011;65232;48.358;2.122;2022-12-10T00:50:57;36.35;;;23.10;;
76403;SDS011;65232;48.358;2.122;2022-12-10T00:51:25;33.78;;;21.88;;
76403;SDS011;65232;48.358;2.122;2022-12-10T00:51:51;32.25;;;22.63;;
76403;SDS011;65232;48.358;2.122;2022-12-10T00:52:17;32.33;;;22.38;;
76403;SDS011;65232;48.358;2.122;2022-12-10T00:52:42;32.67;;;22.30;;
76403;SDS011;65232;48.358;2.122;2022-12-10T00:53:07;30.80;;;20.92;;
76403;SDS011;65232;48.358;2.122;2022-12-10T00:53:33;35.42;;;22.38;;
76403;SDS011;65232;48.358;2.122;2022-12-10T00:54:00;34.15;;;22.13;;
76403;SDS011;65232;48.358;2.122;2022-12-10T00:54:25;34.42;;;22.60;;
76403;SDS011;65232;48.358;2.122;2022-12-10T00:54:51;33.35;;;22.80;;
76403;SDS011;65232;48.358;2.122;2022-12-10T00:55:16;34.28;;;23.00;;
76403;SDS011;65232;48.358;2.122;2022-12-10T00:55:41;33.22;;;21.80;;
76403;SDS011;65232;48.358;2.122;2022-12-10T00:56:08;31.90;;;21.83;;
76403;SDS011;65232;48.358;2.122;2022-12-10T00:56:35;33.92;;;22.73;;
76403;SDS011;65232;48.358;2.122;2022-12-10T00:57:00;32.88;;;22.38;;
76403;SDS011;65232;48.358;2.122;2022-12-10T00:57:26;35.97;;;23.50;;
76403;SDS011;65232;48.358;2.122;2022-12-10T00:57:51;31.30;;;22.05;;
76403;SDS011;65232;48.358;2.122;2022-12-10T00:58:16;37.42;;;22.77;;
76403;SDS011;65232;48.358;2.122;2022-12-10T00:58:42;36.88;;;22.85;;
76403;SDS011;65232;48.358;2.122;2022-12-10T00:59:07;37.20;;;24.23;;
76403;SDS011;65232;48.358;2.122;2022-12-10T00:59:33;44.08;;;26.63;;
76403;SDS011;65232;48.358;2.122;2022-12-10T00:59:58;36.40;;;23.65;;
76403;SDS011;65232;48.358;2.122;2022-12-10T01:00:24;30.58;;;21.27;;
76403;SDS011;65232;48.358;2.122;2022-12-10T01:00:49;30.83;;;19.67;;
76403;SDS011;65232;48.358;2.122;2022-12-10T01:01:17;33.83;;;22.85;;
76403;SDS011;65232;48.358;2.122;2022-12-10T01:01:46;35.42;;;21.23;;
76403;SDS011;65232;48.358;2.122;2022-12-10T01:02:11;34.10;;;22.25;;
76403;SDS011;65232;48.358;2.122;2022-12-10T01:02:37;30.42;;;21.60;;
76403;SDS011;65232;48.358;2.122;2022-12-10T01:03:02;31.45;;;21.25;;
76403;SDS011;65232;48.358;2.122;2022-12-10T01:03:27;32.47;;;22.50;;
76403;SDS011;65232;48.358;2.122;2022-12-10T01:03:54;32.83;;;22.05;;
76403;SDS011;65232;48.358;2.122;2022-12-10T01:04:21;33.67;;;22.30;;
76403;SDS011;65232;48.358;2.122;2022-12-10T01:04:46;36.08;;;24.00;;
76403;SDS011;65232;48.358;2.122;2022-12-10T01:05:11;36.03;;;24.42;;
76403;SDS011;65232;48.358;2.122;2022-12-10T01:05:37;38.40;;;23.65;;
76403;SDS011;65232;48.358;2.122;2022-12-10T01:06:09;38.92;;;23.80;;
76403;SDS011;65232;48.358;2.122;2022-12-10T01:06:48;32.90;;;22.25;;
76403;SDS011;65232;48.358;2.122;2022-12-10T01:07:17;31.13;;;20.63;;
76403;SDS011;65232;48.358;2.122;2022-12-10T01:07:43;34.05;;;22.15;;
76403;SDS011;65232;48.358;2.122;2022-12-10T01:08:08;33.60;;;21.70;;
76403;SDS011;65232;48.358;2.122;2022-12-10T01:08:34;32.75;;;20.67;;
76403;SDS011;65232;48.358;2.122;2022-12-10T01:09:00;35.42;;;22.25;;
76403;SDS011;65232;48.358;2.122;2022-12-10T01:09:29;35.35;;;21.33;;
76403;SDS011;65232;48.358;2.122;2022-12-10T01:09:55;32.83;;;20.35;;
76403;SDS011;65232;48.358;2.122;2022-12-10T01:10:21;32.25;;;20.73;;
76403;SDS011;65232;48.358;2.122;2022-12-10T01:10:52;30.67;;;20.35;;
76403;SDS011;65232;48.358;2.122;2022-12-10T01:11:19;30.50;;;21.00;;
76403;SDS011;65232;48.358;2.122;2022-12-10T01:11:46;29.15;;;19.58;;
76403;SDS011;65232;48.358;2.122;2022-12-10T01:12:13;31.10;;;19.83;;
76403;SDS011;65232;48.358;2.122;2022-12-10T01:12:39;33.08;;;20.85;;
76403;SDS011;65232;48.358;2.122;2022-12-10T01:13:04;29.77;;;20.02;;
76403;SDS011;65232;48.358;2.122;2022-12-10T01:13:29;30.80;;;19.77;;
76403;SDS011;65232;48.358;2.122;2022-12-10T01:13:55;31.88;;;19.58;;
76403;SDS011;65232;48.358;2.122;2022-12-10T01:14:25;29.15;;;19.35;;
76403;SDS011;65232;48.358;2.122;2022-12-10T01:14:52;32.40;;;20.00;;
76403;SDS011;65232;48.358;2.122;2022-12-10T01:15:17;33.63;;;21.30;;
76403;SDS011;65232;48.358;2.122;2022-12-10T01:15:43;30.40;;;20.77;;
76403;SDS011;65232;48.358;2.122;2022-12-10T01:16:09;36.33;;;21.58;;
76403;SDS011;65232;48.358;2.122;2022-12-10T01:16:36;35.67;;;22.33;;
76403;SDS011;65232;48.358;2.122;2022-12-10T01:17:03;32.05;;;20.27;;
76403;SDS011;65232;48.358;2.122;2022-12-10T01:17:29;35.10;;;21.55;;
76403;SDS011;65232;48.358;2.122;2022-12-10T01:17:55;32.95;;;21.17;;
76403;SDS011;65232;48.358;2.122;2022-12-10T01:18:20;30.27;;;21.08;;
76403;SDS011;65232;48.358;2.122;2022-12-10T01:18:46;33.53;;;22.05;;
76403;SDS011;65232;48.358;2.122;2022-12-10T01:19:11;34.88;;;20.35;;
76403;SDS011;65232;48.358;2.122;2022-12-10T01:19:37;32.67;;;21.15;;
76403;SDS011;65232;48.358;2.122;2022-12-10T01:20:03;32.45;;;19.55;;
76403;SDS011;65232;48.358;2.122;2022-12-10T01:20:28;30.08;;;19.65;;
76403;SDS011;65232;48.358;2.122;2022-12-10T01:20:54;31.13;;;19.85;;
76403;SDS011;65232;48.358;2.122;2022-12-10T01:21:19;33.25;;;21.17;;
76403;SDS011;65232;48.358;2.122;2022-12-10T01:21:48;29.75;;;19.08;;
76403;SDS011;65232;48.358;2.122;2022-12-10T01:22:15;28.70;;;20.48;;
76403;SDS011;65232;48.358;2.122;2022-12-10T01:22:40;30.85;;;19.30;;
76403;SDS011;65232;48.358;2.122;2022-12-10T01:23:06;30.33;;;20.13;;
76403;SDS011;65232;48.358;2.122;2022-12-10T01:23:32;32.28;;;21.33;;
76403;SDS011;65232;48.358;2.122;2022-12-10T01:23:58;28.23;;;19.40;;
76403;SDS011;65232;48.358;2.122;2022-12-10T01:24:24;29.17;;;19.38;;
76403;SDS011;65232;48.358;2.122;2022-12-10T01:24:51;29.52;;;19.20;;
76403;SDS011;65232;48.358;2.122;2022-12-10T01:25:17;28.42;;;19.05;;
76403;SDS011;65232;48.358;2.122;2022-12-10T01:25:42;28.63;;;19.08;;
76403;SDS011;65232;48.358;2.122;2022-12-10T01:26:09;29.77;;;20.00;;
76403;SDS011;65232;48.358;2.122;2022-12-10T01:26:37;28.08;;;18.42;;
76403;SDS011;65232;48.358;2.122;2022-12-10T01:27:03;29.27;;;19.33;;
76403;SDS011;65232;48.358;2.122;2022-12-10T01:27:28;28.85;;;19.23;;
76403;SDS011;65232;48.358;2.122;2022-12-10T01:27:53;27.75;;;18.35;;
76403;SDS011;65232;48.358;2.122;2022-12-10T01:28:19;26.00;;;17.88;;
76403;SDS011;65232;48.358;2.122;2022-12-10T01:28:44;27.40;;;18.17;;
76403;SDS011;65232;48.358;2.122;2022-12-10T01:29:10;32.85;;;19.75;;
76403;SDS011;65232;48.358;2.122;2022-12-10T01:29:36;30.38;;;19.67;;
76403;SDS011;65232;48.358;2.122;2022-12-10T01:30:02;31.98;;;19.48;;
76403;SDS011;65232;48.358;2.122;2022-12-10T01:30:27;28.38;;;18.25;;
76403;SDS011;65232;48.358;2.122;2022-12-10T01:30:52;29.33;;;19.17;;
76403;SDS011;65232;48.358;2.122;2022-12-10T01:31:23;31.75;;;19.83;;
76403;SDS011;65232;48.358;2.122;2022-12-10T01:32:06;28.95;;;17.70;;
76403;SDS011;65232;48.358;2.122;2022-12-10T01:32:32;28.50;;;17.90;;
76403;SDS011;65232;48.358;2.122;2022-12-10T01:32:57;28.40;;;18.00;;
76403;SDS011;65232;48.358;2.122;2022-12-10T01:33:22;27.23;;;17.33;;
76403;SDS011;65232;48.358;2.122;2022-12-10T01:33:48;28.33;;;18.52;;
76403;SDS011;65232;48.358;2.122;2022-12-10T01:34:14;28.98;;;18.45;;
76403;SDS011;65232;48.358;2.122;2022-12-10T01:34:39;30.23;;;19.40;;
76403;SDS011;65232;48.358;2.122;2022-12-10T01:35:05;28.15;;;18.67;;
76403;SDS011;65232;48.358;2.122;2022-12-10T01:35:30;30.35;;;18.38;;
76403;SDS011;65232;48.358;2.122;2022-12-10T01:35:56;29.40;;;19.02;;
76403;SDS011;65232;48.358;2.122;2022-12-10T01:36:31;28.70;;;18.40;;
76403;SDS011;65232;48.358;2.122;2022-12-10T01:37:00;27.45;;;18.17;;
76403;SDS011;65232;48.358;2.122;2022-12-10T01:37:26;27.65;;;18.30;;
76403;SDS011;65232;48.358;2.122;2022-12-10T01:37:51;28.25;;;18.65;;
76403;SDS011;65232;48.358;2.122;2022-12-10T01:38:17;29.00;;;18.27;;
76403;SDS011;65232;48.358;2.122;2022-12-10T01:38:42;27.17;;;17.88;;
76403;SDS011;65232;48.358;2.122;2022-12-10T01:39:09;30.60;;;18.35;;
76403;SDS011;65232;48.358;2.122;2022-12-10T01:39:36;25.77;;;17.45;;
76403;SDS011;65232;48.358;2.122;2022-12-10T01:40:02;31.63;;;20.05;;
76403;SDS011;65232;48.358;2.122;2022-12-10T01:40:27;27.83;;;18.58;;
76403;SDS011;65232;48.358;2.122;2022-12-10T01:40:53;30.90;;;20.30;;
76403;SDS011;65232;48.358;2.122;2022-12-10T01:41:20;30.10;;;19.10;;
76403;SDS011;65232;48.358;2.122;2022-12-10T01:41:54;29.45;;;19.67;;
76403;SDS011;65232;48.358;2.122;2022-12-10T01:42:23;29.80;;;19.20;;
76403;SDS011;65232;48.358;2.122;2022-12-10T01:42:48;28.75;;;18.90;;
76403;SDS011;65232;48.358;2.122;2022-12-10T01:43:14;26.52;;;17.20;;
76403;SDS011;65232;48.358;2.122;2022-12-10T01:45:14;27.70;;;17.23;;
76403;SDS011;65232;48.358;2.122;2022-12-10T01:45:40;28.42;;;17.77;;
76403;SDS011;65232;48.358;2.122;2022-12-10T01:46:05;28.98;;;18.20;;
76403;SDS011;65232;48.358;2.122;2022-12-10T01:46:32;28.40;;;18.75;;
76403;SDS011;65232;48.358;2.122;2022-12-10T01:46:59;29.35;;;18.70;;
76403;SDS011;65232;48.358;2.122;2022-12-10T01:47:25;29.13;;;19.25;;
76403;SDS011;65232;48.358;2.122;2022-12-10T01:47:51;31.67;;;19.52;;
76403;SDS011;65232;48.358;2.122;2022-12-10T01:48:16;30.90;;;19.85;;
76403;SDS011;65232;48.358;2.122;2022-12-10T01:48:42;29.27;;;18.67;;
76403;SDS011;65232;48.358;2.122;2022-12-10T01:49:09;31.63;;;18.17;;
76403;SDS011;65232;48.358;2.122;2022-12-10T01:49:39;29.02;;;17.88;;
76403;SDS011;65232;48.358;2.122;2022-12-10T01:50:06;30.52;;;18.30;;
76403;SDS011;65232;48.358;2.122;2022-12-10T01:50:32;27.88;;;18.65;;
76403;SDS011;65232;48.358;2.122;2022-12-10T01:50:58;29.17;;;18.58;;
76403;SDS011;65232;48.358;2.122;2022-12-10T01:51:24;29.30;;;17.70;;
76403;SDS011;65232;48.358;2.122;2022-12-10T01:51:53;26.75;;;18.10;;
76403;SDS011;65232;48.358;2.122;2022-12-10T01:52:20;26.73;;;18.42;;
76403;SDS011;65232;48.358;2.122;2022-12-10T01:52:45;27.80;;;18.63;;
76403;SDS011;65232;48.358;2.122;2022-12-10T01:53:11;27.73;;;18.27;;
76403;SDS011;65232;48.358;2.122;2022-12-10T01:53:38;27.55;;;18.05;;
76403;SDS011;65232;48.358;2.122;2022-12-10T01:54:05;28.73;;;17.98;;
76403;SDS011;65232;48.358;2.122;2022-12-10T01:54:38;27.52;;;17.92;;
76403;SDS011;65232;48.358;2.122;2022-12-10T01:55:07;28.98;;;16.52;;
76403;SDS011;65232;48.358;2.122;2022-12-10T01:55:52;25.65;;;16.77;;
76403;SDS011;65232;48.358;2.122;2022-12-10T01:56:18;28.15;;;17.10;;
76403;SDS011;65232;48.358;2.122;2022-12-10T01:56:45;29.42;;;18.00;;
76403;SDS011;65232;48.358;2.122;2022-12-10T01:57:42;25.42;;;16.77;;
76403;SDS011;65232;48.358;2.122;2022-12-10T01:58:09;28.15;;;18.50;;
76403;SDS011;65232;48.358;2.122;2022-12-10T01:58:36;26.92;;;18.00;;
76403;SDS011;65232;48.358;2.122;2022-12-10T01:59:02;27.48;;;18.58;;
76403;SDS011;65232;48.358;2.122;2022-12-10T01:59:28;26.20;;;18.38;;
76403;SDS011;65232;48.358;2.122;2022-12-10T01:59:57;27.13;;;18.33;;
76403;SDS011;65232;48.358;2.122;2022-12-10T02:00:24;27.58;;;17.77;;
76403;SDS011;65232;48.358;2.122;2022-12-10T02:00:52;27.02;;;17.63;;
76403;SDS011;65232;48.358;2.122;2022-12-10T02:01:36;25.08;;;16.52;;
76403;SDS011;65232;48.358;2.122;2022-12-10T02:02:57;26.70;;;16.67;;
76403;SDS011;65232;48.358;2.122;2022-12-10T02:03:33;29.25;;;17.65;;
76403;SDS011;65232;48.358;2.122;2022-12-10T02:05:51;27.38;;;15.77;;
76403;SDS011;65232;48.358;2.122;2022-12-10T02:08:55;24.73;;;16.48;;
76403;SDS011;65232;48.358;2.122;2022-12-10T02:09:36;24.17;;;14.27;;
76403;SDS011;65232;48.358;2.122;2022-12-10T02:11:05;25.02;;;14.93;;
76403;SDS011;65232;48.358;2.122;2022-12-10T02:12:46;28.88;;;16.65;;
76403;SDS011;65232;48.358;2.122;2022-12-10T02:13:56;31.90;;;16.05;;
76403;SDS011;65232;48.358;2.122;2022-12-10T02:15:37;25.95;;;15.80;;
76403;SDS011;65232;48.358;2.122;2022-12-10T02:16:22;24.38;;;15.75;;
76403;SDS011;65232;48.358;2.122;2022-12-10T02:16:56;27.40;;;17.08;;
76403;SDS011;65232;48.358;2.122;2022-12-10T02:17:46;27.90;;;16.42;;
76403;SDS011;65232;48.358;2.122;2022-12-10T02:18:18;26.75;;;16.10;;
76403;SDS011;65232;48.358;2.122;2022-12-10T02:20:40;29.38;;;16.38;;
76403;SDS011;65232;48.358;2.122;2022-12-10T02:21:14;31.52;;;17.35;;
76403;SDS011;65232;48.358;2.122;2022-12-10T02:21:44;26.58;;;17.60;;
76403;SDS011;65232;48.358;2.122;2022-12-10T02:22:13;28.17;;;17.15;;
76403;SDS011;65232;48.358;2.122;2022-12-10T02:22:52;28.65;;;17.88;;
76403;SDS011;65232;48.358;2.122;2022-12-10T02:23:30;28.10;;;15.85;;
76403;SDS011;65232;48.358;2.122;2022-12-10T02:24:05;31.30;;;17.80;;
76403;SDS011;65232;48.358;2.122;2022-12-10T02:25:02;31.92;;;17.17;;
76403;SDS011;65232;48.358;2.122;2022-12-10T02:25:51;30.48;;;17.17;;
76403;SDS011;65232;48.358;2.122;2022-12-10T02:27:21;29.27;;;16.92;;
76403;SDS011;65232;48.358;2.122;2022-12-10T02:29:12;34.58;;;18.85;;
76403;SDS011;65232;48.358;2.122;2022-12-10T02:29:46;35.78;;;19.05;;
76403;SDS011;65232;48.358;2.122;2022-12-10T02:30:13;33.38;;;18.23;;
76403;SDS011;65232;48.358;2.122;2022-12-10T02:30:39;34.30;;;19.17;;
76403;SDS011;65232;48.358;2.122;2022-12-10T02:31:08;36.38;;;20.80;;
76403;SDS011;65232;48.358;2.122;2022-12-10T02:31:36;36.03;;;19.55;;
76403;SDS011;65232;48.358;2.122;2022-12-10T02:32:36;38.00;;;20.52;;
76403;SDS011;65232;48.358;2.122;2022-12-10T02:33:06;36.80;;;17.88;;
76403;SDS011;65232;48.358;2.122;2022-12-10T02:33:34;35.95;;;18.83;;
76403;SDS011;65232;48.358;2.122;2022-12-10T02:34:04;36.38;;;19.92;;
76403;SDS011;65232;48.358;2.122;2022-12-10T02:34:35;35.50;;;18.75;;
76403;SDS011;65232;48.358;2.122;2022-12-10T02:35:07;39.65;;;19.67;;
76403;SDS011;65232;48.358;2.122;2022-12-10T02:35:37;36.78;;;19.00;;
76403;SDS011;65232;48.358;2.122;2022-12-10T02:36:05;36.08;;;19.27;;
76403;SDS011;65232;48.358;2.122;2022-12-10T02:36:34;34.17;;;18.88;;
76403;SDS011;65232;48.358;2.122;2022-12-10T02:37:03;29.30;;;17.83;;
76403;SDS011;65232;48.358;2.122;2022-12-10T02:37:36;37.15;;;20.00;;
76403;SDS011;65232;48.358;2.122;2022-12-10T02:38:39;34.33;;;17.95;;
76403;SDS011;65232;48.358;2.122;2022-12-10T02:39:01;30.55;;;17.10;;
76403;SDS011;65232;48.358;2.122;2022-12-10T02:39:29;30.30;;;16.08;;
76403;SDS011;65232;48.358;2.122;2022-12-10T02:40:02;34.17;;;17.65;;
76403;SDS011;65232;48.358;2.122;2022-12-10T02:40:39;34.30;;;18.15;;
76403;SDS011;65232;48.358;2.122;2022-12-10T02:41:19;32.40;;;17.73;;
76403;SDS011;65232;48.358;2.122;2022-12-10T02:42:06;32.15;;;16.33;;
76403;SDS011;65232;48.358;2.122;2022-12-10T02:42:35;33.72;;;17.73;;
76403;SDS011;65232;48.358;2.122;2022-12-10T02:43:05;32.35;;;17.20;;
76403;SDS011;65232;48.358;2.122;2022-12-10T02:43:58;34.40;;;17.55;;
76403;SDS011;65232;48.358;2.122;2022-12-10T02:44:27;32.22;;;17.55;;
76403;SDS011;65232;48.358;2.122;2022-12-10T02:44:54;35.08;;;17.95;;
76403;SDS011;65232;48.358;2.122;2022-12-10T02:45:23;33.83;;;17.75;;
76403;SDS011;65232;48.358;2.122;2022-12-10T02:45:52;32.58;;;18.00;;
76403;SDS011;65232;48.358;2.122;2022-12-10T02:46:19;33.15;;;18.20;;
76403;SDS011;65232;48.358;2.122;2022-12-10T02:46:46;36.38;;;18.60;;
76403;SDS011;65232;48.358;2.122;2022-12-10T02:47:15;37.10;;;18.90;;
76403;SDS011;65232;48.358;2.122;2022-12-10T02:47:41;33.60;;;18.65;;
76403;SDS011;65232;48.358;2.122;2022-12-10T02:48:07;34.00;;;18.33;;
76403;SDS011;65232;48.358;2.122;2022-12-10T02:48:34;39.70;;;19.30;;
76403;SDS011;65232;48.358;2.122;2022-12-10T02:49:01;37.65;;;20.13;;
76403;SDS011;65232;48.358;2.122;2022-12-10T02:49:30;33.30;;;18.40;;
76403;SDS011;65232;48.358;2.122;2022-12-10T02:49:57;41.42;;;21.13;;
76403;SDS011;65232;48.358;2.122;2022-12-10T02:50:24;41.35;;;19.58;;
76403;SDS011;65232;48.358;2.122;2022-12-10T02:50:50;40.38;;;21.10;;
76403;SDS011;65232;48.358;2.122;2022-12-10T02:51:15;39.50;;;21.52;;
76403;SDS011;65232;48.358;2.122;2022-12-10T02:51:41;41.75;;;20.98;;
76403;SDS011;65232;48.358;2.122;2022-12-10T02:52:07;42.60;;;22.00;;
76403;SDS011;65232;48.358;2.122;2022-12-10T02:52:34;43.08;;;21.05;;
76403;SDS011;65232;48.358;2.122;2022-12-10T02:52:59;42.03;;;21.08;;
76403;SDS011;65232;48.358;2.122;2022-12-10T02:53:24;39.85;;;19.80;;
76403;SDS011;65232;48.358;2.122;2022-12-10T02:53:59;41.00;;;20.27;;
76403;SDS011;65232;48.358;2.122;2022-12-10T02:55:08;35.65;;;18.67;;
76403;SDS011;65232;48.358;2.122;2022-12-10T02:55:43;38.28;;;19.98;;
76403;SDS011;65232;48.358;2.122;2022-12-10T02:56:36;39.03;;;18.05;;
76403;SDS011;65232;48.358;2.122;2022-12-10T02:58:02;36.55;;;17.42;;
76403;SDS011;65232;48.358;2.122;2022-12-10T02:59:29;36.40;;;18.38;;
76403;SDS011;65232;48.358;2.122;2022-12-10T03:00:31;32.35;;;17.52;;
76403;SDS011;65232;48.358;2.122;2022-12-10T03:01:15;33.80;;;17.35;;
76403;SDS011;65232;48.358;2.122;2022-12-10T03:04:14;35.15;;;16.83;;
76403;SDS011;65232;48.358;2.122;2022-12-10T03:04:46;34.42;;;17.85;;
76403;SDS011;65232;48.358;2.122;2022-12-10T03:05:27;41.00;;;20.13;;